Time;durP1;ratioP1;P1;durP2;ratioP2;P2;SDS_P1;SDS_P2;PMS_P1;PMS_P2;Temp;Humidity;BMP_temperature;BMP_pressure;BME280_temperature;BME280_humidity;BME280_pressure;Samples;Min_cycle;Max_cycle;Signal;HPM_P1;HPM_P2
2023/08/11 00:02:25;;;;;;;7.80;4.10;;;16.30;99.90;;;;;;5038582;28;20193;-45
2023/08/11 00:04:58;;;;;;;9.27;5.27;;;16.30;99.90;;;;;;5039703;28;20192;-42
2023/08/11 00:07:23;;;;;;;8.77;5.20;;;16.20;99.90;;;;;;5022746;28;20270;-47
2023/08/11 00:09:52;;;;;;;12.40;5.17;;;16.20;99.90;;;;;;5039219;28;20200;-43
2023/08/11 00:12:18;;;;;;;8.27;5.23;;;16.20;99.90;;;;;;5038925;28;20198;-48
2023/08/11 00:14:46;;;;;;;9.97;5.53;;;16.10;99.90;;;;;;5038401;28;20299;-42
2023/08/11 00:17:23;;;;;;;10.17;5.57;;;16.10;99.90;;;;;;5039022;28;20298;-43
2023/08/11 00:19:51;;;;;;;11.47;5.93;;;16.10;99.90;;;;;;5035545;28;20611;-42
2023/08/11 00:22:19;;;;;;;13.17;7.17;;;16.00;99.90;;;;;;5038855;28;20188;-45
2023/08/11 00:24:46;;;;;;;15.63;7.20;;;16.00;99.90;;;;;;5039154;28;20585;-45
2023/08/11 00:27:14;;;;;;;13.47;7.07;;;16.00;99.90;;;;;;5038817;28;20307;-43
2023/08/11 00:29:41;;;;;;;12.70;6.87;;;16.10;99.90;;;;;;5056505;28;20177;-45
2023/08/11 00:32:08;;;;;;;12.53;6.33;;;16.10;99.90;;;;;;5056688;28;20192;-42
2023/08/11 00:34:47;;;;;;;12.53;6.37;;;16.00;99.90;;;;;;5022315;28;20215;-43
2023/08/11 00:37:13;;;;;;;8.93;6.03;;;16.00;99.90;;;;;;5007094;28;20738;-47
2023/08/11 00:39:53;;;;;;;9.43;6.40;;;15.90;99.90;;;;;;5038400;28;20273;-41
2023/08/11 00:42:20;;;;;;;10.43;6.67;;;15.90;99.90;;;;;;5056555;28;20168;-47
2023/08/11 00:44:46;;;;;;;11.57;6.60;;;15.90;99.90;;;;;;5056924;28;20282;-46
2023/08/11 00:47:21;;;;;;;10.10;6.33;;;15.90;99.90;;;;;;5056825;28;20241;-43
2023/08/11 00:49:49;;;;;;;9.13;5.90;;;15.80;99.90;;;;;;5042365;28;20214;-48
2023/08/11 00:52:15;;;;;;;12.30;6.80;;;15.80;99.90;;;;;;5056410;28;20184;-46
2023/08/11 01:01:35;;;;;;;;;;;;;;;;;;;;;
2023/08/11 01:04:03;;;;;;;10.00;6.20;;;15.70;99.90;;;;;;5041482;28;20176;-45
2023/08/11 01:06:51;;;;;;;9.83;6.23;;;15.60;99.90;;;;;;5056098;28;20294;-44
2023/08/11 01:09:41;;;;;;;11.00;6.93;;;15.60;99.90;;;;;;5056453;28;20283;-43
2023/08/11 01:12:16;;;;;;;10.03;6.23;;;15.50;99.90;;;;;;5038313;28;20243;-43
2023/08/11 01:14:52;;;;;;;11.10;6.70;;;15.50;99.90;;;;;;5038334;28;20231;-42
2023/08/11 01:17:20;;;;;;;14.23;6.83;;;15.50;99.90;;;;;;5038433;28;20587;-47
2023/08/11 01:19:47;;;;;;;14.10;7.17;;;15.50;99.90;;;;;;5056221;28;20180;-47
2023/08/11 01:22:31;;;;;;;9.83;6.73;;;15.50;99.90;;;;;;5038517;28;20188;-42
2023/08/11 01:24:58;;;;;;;16.47;7.10;;;15.50;99.90;;;;;;5024135;28;20161;-47
2023/08/11 01:27:28;;;;;;;13.03;6.80;;;15.40;99.90;;;;;;5037543;28;20212;-43
2023/08/11 01:29:54;;;;;;;9.37;6.13;;;15.40;99.90;;;;;;5038492;28;20176;-49
2023/08/11 01:32:21;;;;;;;14.90;6.87;;;15.40;99.90;;;;;;5038295;28;20220;-48
2023/08/11 01:34:46;;;;;;;12.27;6.50;;;15.40;99.90;;;;;;5038350;28;20220;-46
2023/08/11 01:37:18;;;;;;;11.50;7.07;;;15.40;99.90;;;;;;5056675;28;20258;-43
2023/08/11 01:39:44;;;;;;;12.47;6.10;;;15.30;99.90;;;;;;5056721;28;20656;-46
2023/08/11 01:42:11;;;;;;;10.33;6.10;;;15.30;99.90;;;;;;5038153;28;20184;-46
2023/08/11 01:44:38;;;;;;;14.33;7.10;;;15.30;99.90;;;;;;5056046;28;20203;-48
2023/08/11 01:47:09;;;;;;;13.10;6.77;;;15.20;99.90;;;;;;5037839;28;20216;-43
2023/08/11 01:49:35;;;;;;;11.37;6.57;;;15.20;99.90;;;;;;5021394;28;20219;-46
2023/08/11 01:52:03;;;;;;;12.90;7.33;;;15.10;99.90;;;;;;5055811;28;20188;-46
2023/08/11 01:54:29;;;;;;;14.03;6.37;;;15.10;99.90;;;;;;5055275;28;20730;-43
2023/08/11 01:57:00;;;;;;;11.13;5.97;;;15.10;99.90;;;;;;5037591;28;20215;-42
2023/08/11 01:59:32;;;;;;;12.17;6.23;;;15.10;99.90;;;;;;5037609;28;20800;-42
2023/08/11 02:01:58;;;;;;;10.50;5.97;;;15.10;99.90;;;;;;5055563;28;20648;-48
2023/08/11 02:04:25;;;;;;;14.37;6.10;;;15.00;99.90;;;;;;5037230;28;20192;-47
2023/08/11 02:07:11;;;;;;;10.17;6.30;;;15.00;99.90;;;;;;5037572;28;20714;-46
2023/08/11 02:09:58;;;;;;;13.30;6.40;;;15.00;99.90;;;;;;5056073;28;20230;-40
2023/08/11 02:12:32;;;;;;;11.43;6.33;;;15.00;99.90;;;;;;5036974;28;20233;-43
2023/08/11 02:15:08;;;;;;;11.43;5.73;;;15.00;99.90;;;;;;5037486;28;20183;-43
2023/08/11 02:18:01;;;;;;;11.63;6.10;;;15.00;99.90;;;;;;5037467;28;20261;-47
2023/08/11 02:20:32;;;;;;;9.07;4.97;;;15.00;99.90;;;;;;5037915;28;20199;-43
2023/08/11 02:23:01;;;;;;;14.43;5.80;;;15.00;99.90;;;;;;5021681;28;20203;-43
2023/08/11 02:25:26;;;;;;;9.67;5.77;;;15.00;99.90;;;;;;5055067;28;20656;-47
2023/08/11 02:27:54;;;;;;;7.83;5.70;;;14.90;99.90;;;;;;5036924;28;20196;-42
2023/08/11 02:30:21;;;;;;;8.47;5.57;;;14.90;99.90;;;;;;5037116;28;20616;-46
2023/08/11 02:32:51;;;;;;;11.33;6.77;;;14.90;99.90;;;;;;5054676;28;20246;-42
2023/08/11 02:35:19;;;;;;;10.43;5.73;;;14.80;99.90;;;;;;5037226;28;20241;-42
2023/08/11 02:37:48;;;;;;;10.47;6.07;;;14.80;99.90;;;;;;5037081;28;20591;-41
2023/08/11 02:40:19;;;;;;;10.07;5.60;;;14.80;99.90;;;;;;5037294;28;20207;-43
2023/08/11 02:42:52;;;;;;;14.73;6.67;;;14.80;99.90;;;;;;5037660;28;20168;-45
2023/08/11 02:45:18;;;;;;;10.33;6.03;;;14.80;99.90;;;;;;5037011;28;20184;-45
2023/08/11 02:47:51;;;;;;;9.57;6.13;;;14.80;99.90;;;;;;5036842;28;20208;-47
2023/08/11 02:50:18;;;;;;;10.33;5.80;;;14.70;99.90;;;;;;5021032;28;20204;-42
2023/08/11 02:52:44;;;;;;;10.00;6.53;;;14.80;99.90;;;;;;5036533;28;20168;-48
2023/08/11 02:55:14;;;;;;;10.87;5.80;;;14.80;99.90;;;;;;5036935;28;20744;-42
2023/08/11 02:57:39;;;;;;;7.83;6.03;;;14.70;99.90;;;;;;5036467;28;20279;-45
2023/08/11 03:00:20;;;;;;;9.33;6.03;;;14.70;99.90;;;;;;5036846;28;20192;-43
2023/08/11 03:03:01;;;;;;;;;;;;;;;;;;;;;
2023/08/11 03:05:39;;;;;;;10.47;6.33;;;14.60;99.90;;;;;;5053315;28;20181;-44
2023/08/11 03:08:07;;;;;;;12.60;6.10;;;14.60;99.90;;;;;;5036933;28;20195;-47
2023/08/11 03:10:37;;;;;;;11.53;5.67;;;14.60;99.90;;;;;;5020940;28;20194;-42
2023/08/11 03:13:03;;;;;;;10.70;6.43;;;14.60;99.90;;;;;;5055185;28;20281;-44
2023/08/11 03:15:29;;;;;;;15.47;6.10;;;14.60;99.90;;;;;;5036806;28;20184;-46
2023/08/11 03:17:56;;;;;;;11.83;6.10;;;14.50;99.90;;;;;;5036611;28;20207;-48
2023/08/11 03:20:26;;;;;;;9.80;6.47;;;14.50;99.90;;;;;;5037298;28;20664;-47
2023/08/11 03:22:51;;;;;;;12.73;7.10;;;14.50;99.90;;;;;;5037873;28;20184;-47
2023/08/11 03:25:17;;;;;;;8.23;5.30;;;14.50;99.90;;;;;;5036631;28;20192;-46
2023/08/11 03:28:01;;;;;;;8.67;5.67;;;14.50;99.90;;;;;;5054914;28;20228;-46
2023/08/11 03:30:27;;;;;;;9.80;5.43;;;14.40;99.90;;;;;;5055059;28;20176;-46
2023/08/11 03:32:53;;;;;;;10.23;5.80;;;14.40;99.90;;;;;;5054650;28;20678;-46
2023/08/11 03:35:19;;;;;;;8.67;5.43;;;14.40;99.90;;;;;;5037191;28;20180;-48
2023/08/11 03:37:46;;;;;;;10.77;5.30;;;14.30;99.90;;;;;;5036657;28;20208;-47
2023/08/11 03:41:09;;;;;;;8.43;5.17;;;14.30;99.90;;;;;;5037106;28;20521;-41
2023/08/11 03:44:14;;;;;;;9.30;5.03;;;14.30;99.90;;;;;;5050579;28;20203;-43
2023/08/11 03:46:45;;;;;;;8.77;5.67;;;14.20;99.90;;;;;;5055286;28;20606;-43
2023/08/11 03:49:12;;;;;;;11.33;5.30;;;14.20;99.90;;;;;;5036397;28;20204;-42
2023/08/11 03:51:44;;;;;;;9.90;5.60;;;14.20;99.90;;;;;;5038553;28;20334;-43
2023/08/11 03:54:16;;;;;;;12.13;6.17;;;14.10;99.90;;;;;;5056630;28;20231;-42
2023/08/11 03:56:45;;;;;;;10.17;5.90;;;14.10;99.90;;;;;;5038592;28;20208;-42
2023/08/11 03:59:16;;;;;;;10.23;5.90;;;14.10;99.90;;;;;;5038722;28;20210;-42
2023/08/11 04:01:53;;;;;;;8.40;5.43;;;14.10;99.90;;;;;;5038638;28;20660;-41
2023/08/11 04:04:35;;;;;;;10.33;5.50;;;14.00;99.90;;;;;;5037904;28;20198;-42
2023/08/11 04:07:08;;;;;;;10.83;5.80;;;14.00;99.90;;;;;;5037993;28;20216;-40
2023/08/11 04:09:48;;;;;;;10.20;5.97;;;14.00;99.90;;;;;;5038535;28;20200;-42
2023/08/11 04:12:29;;;;;;;11.20;6.00;;;14.00;99.90;;;;;;5023001;28;20199;-43
2023/08/11 04:14:59;;;;;;;11.67;6.23;;;14.00;99.90;;;;;;5038313;28;20208;-42
2023/08/11 04:17:32;;;;;;;10.87;5.73;;;14.00;99.90;;;;;;5056373;28;20219;-42
2023/08/11 04:20:10;;;;;;;12.50;5.70;;;14.10;99.90;;;;;;5038660;28;20192;-41
2023/08/11 04:22:53;;;;;;;15.77;5.73;;;14.00;99.90;;;;;;5040347;28;20182;-43
2023/08/11 04:25:20;;;;;;;10.30;6.03;;;14.00;99.90;;;;;;5038559;28;20195;-41
2023/08/11 04:27:47;;;;;;;9.03;5.77;;;14.00;99.90;;;;;;5038071;28;20218;-46
2023/08/11 04:30:13;;;;;;;15.63;6.23;;;14.00;99.90;;;;;;5021452;28;20675;-46
2023/08/11 04:32:39;;;;;;;8.53;5.67;;;14.00;99.90;;;;;;5055733;28;20176;-46
2023/08/11 04:35:08;;;;;;;10.93;5.30;;;14.00;99.90;;;;;;5055707;28;20215;-46
2023/08/11 04:37:34;;;;;;;10.20;5.47;;;14.00;99.90;;;;;;5038441;28;20208;-46
2023/08/11 04:40:04;;;;;;;11.30;5.50;;;14.00;99.90;;;;;;5055879;28;20184;-47
2023/08/11 04:42:31;;;;;;;14.20;5.80;;;14.00;99.90;;;;;;5037631;28;20211;-47
2023/08/11 04:44:57;;;;;;;10.87;5.37;;;14.00;99.90;;;;;;5037620;28;20664;-46
2023/08/11 04:47:23;;;;;;;9.33;5.70;;;14.00;99.90;;;;;;5037469;28;20208;-46
2023/08/11 04:49:49;;;;;;;9.70;5.10;;;14.10;99.90;;;;;;5055302;28;20204;-47
2023/08/11 04:52:15;;;;;;;11.93;6.20;;;14.10;99.90;;;;;;5055293;28;20200;-45
2023/08/11 04:54:41;;;;;;;10.37;6.10;;;14.10;99.90;;;;;;5037400;28;20223;-47
2023/08/11 04:57:06;;;;;;;7.93;5.43;;;14.10;99.90;;;;;;5037223;28;20639;-46
2023/08/11 04:59:32;;;;;;;7.97;5.27;;;14.10;99.90;;;;;;5055597;28;20254;-47
2023/08/11 05:01:59;;;;;;;8.80;5.30;;;14.20;99.90;;;;;;5037313;28;20199;-46
2023/08/11 05:04:24;;;;;;;8.43;5.07;;;14.20;99.90;;;;;;5037271;28;20243;-47
2023/08/11 05:06:51;;;;;;;9.47;5.07;;;14.20;99.90;;;;;;5037134;28;20219;-46
2023/08/11 05:09:17;;;;;;;8.00;5.37;;;14.20;99.90;;;;;;5055636;28;20199;-46
2023/08/11 05:11:42;;;;;;;7.07;5.17;;;14.20;99.90;;;;;;5057035;28;20690;-47
2023/08/11 05:14:08;;;;;;;7.97;5.27;;;14.20;99.90;;;;;;5037024;28;20677;-46
2023/08/11 05:16:34;;;;;;;12.23;5.50;;;14.30;99.90;;;;;;5036961;28;20204;-45
2023/08/11 05:19:00;;;;;;;13.50;5.83;;;14.30;99.90;;;;;;5036971;28;20188;-46
2023/08/11 05:21:26;;;;;;;13.97;5.90;;;14.40;99.90;;;;;;5037208;28;20196;-47
2023/08/11 05:23:52;;;;;;;9.93;5.93;;;14.40;99.90;;;;;;5037560;28;20556;-44
2023/08/11 05:26:18;;;;;;;13.73;5.77;;;14.50;99.90;;;;;;5036850;28;20215;-45
2023/08/11 05:28:44;;;;;;;9.87;5.80;;;14.50;99.90;;;;;;5037020;28;20192;-46
2023/08/11 05:31:10;;;;;;;11.77;5.63;;;14.60;99.90;;;;;;5054673;28;20184;-46
2023/08/11 05:33:36;;;;;;;8.23;5.60;;;14.60;99.90;;;;;;5036652;28;20584;-46
2023/08/11 05:36:05;;;;;;;10.50;5.73;;;14.70;99.90;;;;;;5054560;28;20275;-47
2023/08/11 05:38:31;;;;;;;10.20;5.40;;;14.80;99.90;;;;;;5054541;28;20203;-44
2023/08/11 05:40:57;;;;;;;10.17;5.63;;;14.80;99.90;;;;;;5036988;28;20618;-46
2023/08/11 05:43:23;;;;;;;11.13;5.40;;;14.90;99.90;;;;;;5054396;28;20204;-46
2023/08/11 05:45:49;;;;;;;11.07;5.53;;;14.90;99.90;;;;;;5054672;28;20235;-45
2023/08/11 05:48:15;;;;;;;11.53;5.53;;;15.00;99.90;;;;;;5054242;28;20188;-46
2023/08/11 05:50:44;;;;;;;8.00;5.20;;;15.10;99.90;;;;;;5054411;28;20275;-46
2023/08/11 05:53:11;;;;;;;11.20;5.80;;;15.20;99.90;;;;;;5036385;28;20212;-47
2023/08/11 05:55:36;;;;;;;10.50;5.70;;;15.20;99.90;;;;;;5054327;28;20595;-46
2023/08/11 05:58:02;;;;;;;11.53;5.40;;;15.40;99.90;;;;;;5036112;28;20242;-46
2023/08/11 06:00:28;;;;;;;7.37;5.10;;;15.40;99.90;;;;;;5054413;28;20181;-46
2023/08/11 06:02:54;;;;;;;10.67;4.80;;;15.50;99.90;;;;;;5036182;28;20184;-45
2023/08/11 06:05:21;;;;;;;10.10;5.07;;;15.60;99.90;;;;;;5036218;28;20660;-46
2023/08/11 06:07:48;;;;;;;10.30;5.30;;;15.80;99.90;;;;;;5019865;28;20208;-45
2023/08/11 06:10:14;;;;;;;9.20;5.23;;;15.80;99.90;;;;;;5036079;28;20184;-46
2023/08/11 06:12:39;;;;;;;9.27;5.07;;;16.00;99.90;;;;;;5035564;28;20187;-47
2023/08/11 06:15:06;;;;;;;12.77;4.43;;;16.10;99.90;;;;;;5053877;28;20346;-47
2023/08/11 06:17:31;;;;;;;10.57;5.13;;;16.20;99.90;;;;;;5036762;28;20298;-45
2023/08/11 06:20:03;;;;;;;11.50;5.80;;;16.30;99.90;;;;;;5037420;28;20219;-42
2023/08/11 06:22:34;;;;;;;10.60;5.13;;;16.40;99.90;;;;;;5055399;28;20163;-45
2023/08/11 06:25:02;;;;;;;11.40;5.50;;;16.60;99.90;;;;;;5055744;28;20171;-44
2023/08/11 06:27:28;;;;;;;8.23;4.93;;;16.70;99.90;;;;;;5037331;28;20204;-45
2023/08/11 06:29:53;;;;;;;11.33;5.13;;;16.90;99.90;;;;;;5037320;28;20188;-45
2023/08/11 06:32:19;;;;;;;7.07;4.37;;;17.10;99.90;;;;;;5038156;28;20196;-46
2023/08/11 06:34:59;;;;;;;9.93;5.43;;;17.20;99.90;;;;;;5037588;28;20211;-41
2023/08/11 06:37:26;;;;;;;10.17;4.23;;;17.40;99.90;;;;;;5038326;28;20211;-45
2023/08/11 06:39:54;;;;;;;13.50;4.70;;;17.50;99.90;;;;;;5055377;28;20180;-47
2023/08/11 06:42:20;;;;;;;7.23;4.30;;;17.70;99.90;;;;;;5054963;28;20192;-46
2023/08/11 06:44:46;;;;;;;10.40;4.57;;;17.90;99.90;;;;;;5054945;28;20180;-47
2023/08/11 06:47:17;;;;;;;8.57;4.60;;;18.10;99.90;;;;;;5054927;28;20200;-45
2023/08/11 06:49:44;;;;;;;13.00;4.40;;;18.30;99.90;;;;;;5036875;28;20208;-47
2023/08/11 06:52:11;;;;;;;7.03;4.40;;;18.50;99.90;;;;;;5054824;28;20176;-46
2023/08/11 06:54:42;;;;;;;10.60;3.90;;;18.70;99.90;;;;;;5037775;28;20224;-42
2023/08/11 06:57:11;;;;;;;11.13;4.07;;;19.00;99.90;;;;;;5036644;28;20200;-44
2023/08/11 06:59:44;;;;;;;11.50;4.40;;;19.30;99.90;;;;;;5037125;28;20188;-42
2023/08/11 07:02:10;;;;;;;7.73;3.87;;;19.50;99.90;;;;;;5055655;28;20161;-47
2023/08/11 07:04:36;;;;;;;6.23;3.50;;;19.70;99.90;;;;;;5037462;28;20220;-46
2023/08/11 07:07:03;;;;;;;6.00;3.47;;;19.90;99.90;;;;;;5037685;28;20228;-48
2023/08/11 07:19:52;;;;;;;10.13;3.50;;;20.90;99.90;;;;;;5053746;28;20231;-44
2023/08/11 07:22:23;;;;;;;13.53;3.60;;;21.30;99.90;;;;;;5036170;28;20224;-44
2023/08/11 07:24:49;;;;;;;4.77;3.20;;;21.50;99.90;;;;;;5055092;28;20275;-48
2023/08/11 07:27:47;;;;;;;6.13;3.40;;;21.70;99.90;;;;;;5040433;28;20765;-43
2023/08/11 07:30:13;;;;;;;5.90;3.13;;;22.00;99.90;;;;;;5035272;28;20659;-48
2023/08/11 07:32:40;;;;;;;7.37;3.43;;;22.20;99.90;;;;;;5058321;28;20184;-48
2023/08/11 07:35:12;;;;;;;5.20;2.87;;;22.40;99.90;;;;;;5040221;28;20216;-43
2023/08/11 07:37:58;;;;;;;5.27;3.20;;;22.70;99.90;;;;;;5021216;28;20229;-50
2023/08/11 07:40:26;;;;;;;5.87;2.90;;;22.90;99.90;;;;;;5058501;28;20161;-44
2023/08/11 07:42:53;;;;;;;8.53;3.33;;;23.10;99.90;;;;;;5040126;28;20195;-44
2023/08/11 07:45:44;;;;;;;7.00;3.20;;;23.30;99.90;;;;;;5040139;28;20276;-45
2023/08/11 07:48:19;;;;;;;8.43;2.90;;;23.50;99.90;;;;;;5025562;28;20204;-49
2023/08/11 07:50:47;;;;;;;4.83;2.73;;;23.70;99.90;;;;;;5039938;28;20605;-50
2023/08/11 07:53:13;;;;;;;6.67;2.80;;;23.90;99.90;;;;;;5039534;28;20301;-48
2023/08/11 07:55:47;;;;;;;11.77;2.33;;;24.10;99.90;;;;;;5057724;28;20208;-50
2023/08/11 07:58:14;;;;;;;5.50;2.43;;;24.30;99.90;;;;;;5024154;28;20187;-48
2023/08/11 08:00:39;;;;;;;5.83;2.30;;;24.50;99.90;;;;;;5023410;28;20575;-50
2023/08/11 08:03:08;;;;;;;5.53;2.33;;;24.70;99.90;;;;;;5039716;28;20188;-44
2023/08/11 08:05:46;;;;;;;6.20;2.33;;;24.80;99.90;;;;;;5057487;28;20192;-43
2023/08/11 08:08:54;;;;;;;7.00;2.70;;;24.90;99.90;;;;;;5057834;28;20200;-43
2023/08/11 08:11:30;;;;;;;5.13;2.30;;;25.10;99.90;;;;;;4967068;28;20299;-43
2023/08/11 08:13:56;;;;;;;4.43;2.27;;;25.40;99.90;;;;;;4995194;28;20226;-49
2023/08/11 08:16:25;;;;;;;2.73;2.10;;;25.50;99.90;;;;;;5057744;28;20204;-43
2023/08/11 08:18:51;;;;;;;6.23;2.00;;;25.60;99.90;;;;;;5039507;28;20702;-48
2023/08/11 08:21:19;;;;;;;5.90;2.27;;;25.80;99.90;;;;;;5039254;28;20231;-45
2023/08/11 08:23:47;;;;;;;4.73;2.30;;;25.90;99.90;;;;;;5039363;28;20220;-50
2023/08/11 08:26:35;;;;;;;5.03;2.20;;;26.00;99.90;;;;;;5057080;28;20196;-44
2023/08/11 08:29:07;;;;;;;4.43;2.67;;;26.10;99.90;;;;;;5057536;28;20175;-44
2023/08/11 08:32:13;;;;;;;5.43;1.97;;;26.20;99.90;;;;;;5040067;28;20188;-44
2023/08/11 08:34:34;;;;;;;4.73;2.10;;;26.40;99.90;;;;;;5053899;28;20212;-51
2023/08/11 08:37:00;;;;;;;5.77;1.90;;;26.50;99.90;;;;;;5038864;28;20260;-49
2023/08/11 08:39:26;;;;;;;3.33;2.23;;;26.50;99.90;;;;;;5038925;28;20710;-50
2023/08/11 08:41:54;;;;;;;3.37;2.00;;;26.50;99.90;;;;;;5039207;28;20180;-50
2023/08/11 08:44:31;;;;;;;5.70;2.30;;;26.50;99.90;;;;;;5039595;28;20180;-45
2023/08/11 08:47:26;;;;;;;5.63;2.20;;;26.60;99.90;;;;;;5054228;28;20606;-45
2023/08/11 08:49:58;;;;;;;4.03;2.30;;;26.60;99.90;;;;;;5024063;28;20211;-45
2023/08/11 08:52:25;;;;;;;3.53;2.10;;;26.60;99.90;;;;;;5039107;28;20283;-51
2023/08/11 08:54:56;;;;;;;3.40;2.00;;;26.70;99.90;;;;;;5039445;28;20247;-45
2023/08/11 08:57:28;;;;;;;2.33;1.90;;;26.70;99.90;;;;;;5038951;28;20201;-44
2023/08/11 08:59:57;;;;;;;4.13;1.80;;;26.90;99.90;;;;;;5039240;28;20181;-51
2023/08/11 09:02:31;;;;;;;3.07;2.00;;;27.00;99.90;;;;;;5057151;28;20192;-46
2023/08/11 09:04:58;;;;;;;3.67;1.90;;;27.20;99.90;;;;;;5056632;28;20179;-50
2023/08/11 09:07:24;;;;;;;4.70;1.90;;;27.30;99.90;;;;;;5022404;28;20204;-51
2023/08/11 09:09:52;;;;;;;2.83;1.80;;;27.30;99.90;;;;;;5038853;28;20192;-44
2023/08/11 09:12:27;;;;;;;7.63;1.90;;;27.40;99.90;;;;;;5038666;28;20242;-45
2023/08/11 09:14:54;;;;;;;2.53;1.80;;;27.40;99.90;;;;;;5038772;28;20211;-50
2023/08/11 09:17:24;;;;;;;2.30;1.60;;;27.50;99.90;;;;;;5038512;28;20671;-47
2023/08/11 09:19:52;;;;;;;3.63;1.90;;;27.50;99.90;;;;;;5038532;28;20678;-49
2023/08/11 09:22:26;;;;;;;6.73;2.00;;;27.60;99.90;;;;;;5039087;28;20241;-46
2023/08/11 09:24:53;;;;;;;2.92;1.83;;;27.60;99.90;;;;;;5038750;28;20176;-52
2023/08/11 09:27:27;;;;;;;5.13;1.97;;;27.70;99.90;;;;;;5038523;28;20687;-44
2023/08/11 09:30:12;;;;;;;2.70;1.50;;;27.70;99.90;;;;;;5038377;28;20276;-47
2023/08/11 09:32:54;;;;;;;3.00;1.73;;;27.80;99.90;;;;;;5038468;28;20667;-46
2023/08/11 09:35:25;;;;;;;4.40;1.90;;;27.90;99.90;;;;;;5038462;28;20180;-51
2023/08/11 09:37:57;;;;;;;2.65;1.65;;;27.90;99.90;;;;;;5038499;28;20635;-44
2023/08/11 09:40:23;;;;;;;4.22;1.80;;;28.00;99.90;;;;;;5021992;28;20184;-50
2023/08/11 09:42:53;;;;;;;2.28;1.63;;;28.00;99.90;;;;;;5038573;28;20191;-50
2023/08/11 09:45:47;;;;;;;5.13;1.60;;;28.20;99.90;;;;;;5038264;28;20185;-47
2023/08/11 09:48:26;;;;;;;4.07;1.67;;;28.20;99.90;;;;;;5021214;28;20180;-45
2023/08/11 09:50:53;;;;;;;2.95;1.88;;;28.40;99.90;;;;;;5038170;28;20180;-52
2023/08/11 09:53:22;;;;;;;1.77;1.67;;;28.50;99.90;;;;;;5037905;28;20219;-51
2023/08/11 09:55:55;;;;;;;2.10;1.60;;;28.50;99.90;;;;;;5055467;28;20183;-46
2023/08/11 09:58:26;;;;;;;3.40;2.03;;;28.60;99.90;;;;;;5055980;28;20646;-50
2023/08/11 10:00:59;;;;;;;2.05;1.70;;;28.60;99.90;;;;;;5055753;28;20259;-44
2023/08/11 10:03:30;;;;;;;2.10;1.90;;;28.60;99.90;;;;;;5038629;28;20184;-51
2023/08/11 10:06:11;;;;;;;3.22;1.80;;;28.60;99.90;;;;;;5055572;28;20551;-47
2023/08/11 10:08:38;;;;;;;2.92;2.20;;;28.60;99.90;;;;;;5022060;28;20188;-52
2023/08/11 10:11:06;;;;;;;2.60;1.63;;;28.60;99.90;;;;;;5055964;28;20195;-53
2023/08/11 10:13:40;;;;;;;3.17;1.83;;;28.80;99.90;;;;;;5038083;28;20265;-45
2023/08/11 10:16:07;;;;;;;2.13;1.92;;;28.80;99.90;;;;;;5021023;28;20212;-53
2023/08/11 10:18:35;;;;;;;1.65;1.55;;;28.90;99.90;;;;;;5055719;28;20594;-46
2023/08/11 10:21:02;;;;;;;2.38;1.73;;;29.00;99.90;;;;;;5055370;28;20185;-52
2023/08/11 10:23:29;;;;;;;4.05;2.25;;;29.00;99.90;;;;;;5021024;28;20238;-52
2023/08/11 10:25:56;;;;;;;2.47;1.80;;;29.00;99.90;;;;;;5037303;28;20236;-52
2023/08/11 10:28:23;;;;;;;2.67;2.00;;;29.10;99.90;;;;;;5037504;28;20188;-52
2023/08/11 10:30:56;;;;;;;2.85;1.80;;;29.20;99.90;;;;;;5055447;28;20188;-50
2023/08/11 10:33:22;;;;;;;2.25;2.00;;;29.30;99.90;;;;;;5037257;28;20266;-53
2023/08/11 10:35:57;;;;;;;4.60;1.73;;;29.30;99.90;;;;;;5055127;28;20184;-47
2023/08/11 10:38:43;;;;;;;3.78;2.03;;;29.40;99.90;;;;;;5055307;28;20160;-45
2023/08/11 10:41:10;;;;;;;2.67;1.95;;;29.50;99.90;;;;;;5035186;28;20242;-51
2023/08/11 10:43:40;;;;;;;3.92;2.30;;;29.50;99.90;;;;;;5054792;28;20188;-50
2023/08/11 10:46:19;;;;;;;2.67;1.77;;;29.60;99.90;;;;;;5055135;28;20211;-46
2023/08/11 10:48:45;;;;;;;4.07;2.00;;;29.70;99.90;;;;;;5037279;28;20203;-52
2023/08/11 10:51:39;;;;;;;2.85;2.05;;;29.80;99.90;;;;;;5055607;28;20564;-52
2023/08/11 10:54:11;;;;;;;3.88;2.35;;;29.80;99.90;;;;;;5033735;28;20219;-51
2023/08/11 10:56:42;;;;;;;3.20;1.77;;;29.90;99.90;;;;;;5054839;28;20231;-51
2023/08/11 10:59:31;;;;;;;2.25;1.70;;;30.00;99.90;;;;;;5040103;28;20191;-47
2023/08/11 11:01:59;;;;;;;5.68;1.80;;;30.00;99.90;;;;;;5025809;28;20195;-53
2023/08/11 11:04:31;;;;;;;5.18;1.85;;;30.10;99.90;;;;;;5040950;28;20678;-50
2023/08/11 11:07:01;;;;;;;3.55;2.30;;;30.10;99.90;;;;;;5058872;28;20671;-45
2023/08/11 11:09:34;;;;;;;2.08;1.80;;;30.10;99.90;;;;;;5059221;28;20203;-51
2023/08/11 11:11:59;;;;;;;3.03;1.90;;;30.20;99.90;;;;;;5058498;28;20180;-51
2023/08/11 11:14:25;;;;;;;4.45;2.10;;;30.30;99.90;;;;;;5058473;28;20212;-52
2023/08/11 11:16:54;;;;;;;3.28;1.90;;;30.30;99.90;;;;;;5040786;28;20208;-51
2023/08/11 11:19:33;;;;;;;2.88;1.83;;;30.50;99.90;;;;;;5040502;28;20199;-46
2023/08/11 11:21:59;;;;;;;3.55;2.10;;;30.60;99.90;;;;;;5040522;28;20188;-53
2023/08/11 11:24:26;;;;;;;3.42;1.75;;;30.60;99.90;;;;;;5040433;28;20556;-50
2023/08/11 11:26:52;;;;;;;2.00;1.80;;;30.60;99.90;;;;;;5059090;28;20282;-53
2023/08/11 11:29:28;;;;;;;3.92;1.90;;;30.70;99.90;;;;;;5040385;28;20223;-47
2023/08/11 11:31:55;;;;;;;1.95;1.80;;;30.80;99.90;;;;;;5008333;28;20207;-45
2023/08/11 11:34:22;;;;;;;5.78;1.98;;;30.90;99.90;;;;;;5058344;28;20208;-53
2023/08/11 11:36:48;;;;;;;3.40;1.80;;;31.00;99.90;;;;;;5058395;28;20204;-51
2023/08/11 11:40:07;;;;;;;4.03;2.00;;;30.90;99.90;;;;;;5040550;28;20184;-47
2023/08/11 11:42:37;;;;;;;3.05;2.45;;;30.90;99.90;;;;;;5057906;28;20192;-53
2023/08/11 11:45:04;;;;;;;5.10;2.20;;;30.90;99.90;;;;;;5040637;28;20224;-52
2023/08/11 11:47:30;;;;;;;3.83;2.05;;;30.90;99.90;;;;;;5039932;28;20755;-51
2023/08/11 11:50:00;;;;;;;2.55;1.95;;;31.00;99.90;;;;;;5070499;28;20250;-49
2023/08/11 11:52:25;;;;;;;2.53;1.90;;;31.10;99.90;;;;;;5059603;28;20659;-52
2023/08/11 11:54:54;;;;;;;2.97;2.03;;;31.30;99.90;;;;;;5043224;28;20223;-47
2023/08/11 11:57:24;;;;;;;5.45;2.10;;;31.40;99.90;;;;;;5059250;28;20230;-52
2023/08/11 11:59:51;;;;;;;4.80;2.10;;;31.50;99.90;;;;;;5077560;28;20663;-46
2023/08/11 12:02:17;;;;;;;4.78;2.03;;;31.60;99.90;;;;;;5059562;28;20191;-52
2023/08/11 12:04:48;;;;;;;3.38;2.22;;;31.60;99.90;;;;;;5059629;28;20184;-48
2023/08/11 12:07:42;;;;;;;2.30;2.10;;;31.50;99.90;;;;;;5060136;28;20218;-45
2023/08/11 12:10:09;;;;;;;5.03;2.33;;;31.50;99.90;;;;;;5060507;28;20183;-46
2023/08/11 12:12:35;;;;;;;2.63;2.40;;;31.60;99.90;;;;;;5059651;28;20201;-45
2023/08/11 12:15:05;;;;;;;2.25;1.92;;;31.70;99.90;;;;;;5059678;28;20241;-46
2023/08/11 12:17:36;;;;;;;2.33;2.13;;;31.80;99.90;;;;;;5059265;28;20231;-45
2023/08/11 12:20:06;;;;;;;4.32;2.28;;;31.90;99.90;;;;;;5059095;28;20656;-45
2023/08/11 12:22:32;;;;;;;3.63;2.75;;;31.90;99.90;;;;;;5059457;28;20198;-52
2023/08/11 12:24:58;;;;;;;2.17;1.98;;;31.90;99.90;;;;;;5059476;28;20198;-51
2023/08/11 12:27:25;;;;;;;2.58;2.20;;;31.90;99.90;;;;;;5059307;28;20215;-46
2023/08/11 12:29:53;;;;;;;3.47;2.30;;;31.90;99.90;;;;;;5060301;28;20226;-46
2023/08/11 12:32:18;;;;;;;2.30;2.10;;;31.90;99.90;;;;;;5059432;28;20196;-49
2023/08/11 12:34:44;;;;;;;6.07;2.10;;;32.00;99.90;;;;;;5077198;28;20231;-53
2023/08/11 12:37:14;;;;;;;3.45;2.20;;;32.00;99.90;;;;;;5059297;28;20594;-50
2023/08/11 12:39:40;;;;;;;9.52;2.40;;;32.00;99.90;;;;;;5059088;28;20176;-51
2023/08/11 12:42:07;;;;;;;3.13;2.20;;;32.10;99.90;;;;;;5059221;28;20179;-47
2023/08/11 12:44:33;;;;;;;3.22;2.22;;;32.10;99.90;;;;;;5077130;28;20188;-51
2023/08/11 12:46:58;;;;;;;2.45;2.03;;;32.10;99.90;;;;;;5058878;28;20586;-50
2023/08/11 12:49:24;;;;;;;3.10;2.00;;;32.00;99.90;;;;;;5068487;28;20722;-52
2023/08/11 12:51:52;;;;;;;2.17;1.98;;;32.00;99.90;;;;;;5056557;28;20212;-51
2023/08/11 12:54:24;;;;;;;3.15;2.33;;;32.00;99.90;;;;;;5038976;28;20332;-47
2023/08/11 12:57:13;;;;;;;2.75;2.08;;;32.00;99.90;;;;;;5056790;28;20204;-47
2023/08/11 12:59:39;;;;;;;2.33;2.08;;;32.00;99.90;;;;;;5040042;28;20196;-51
2023/08/11 13:02:05;;;;;;;4.22;2.30;;;32.10;99.90;;;;;;5057123;28;20177;-53
2023/08/11 13:04:41;;;;;;;3.97;2.33;;;32.20;99.90;;;;;;5039542;28;20188;-46
2023/08/11 13:07:11;;;;;;;2.88;2.10;;;32.20;99.90;;;;;;5039384;28;20302;-53
2023/08/11 13:09:37;;;;;;;2.40;2.20;;;32.30;99.90;;;;;;5056624;28;20189;-51
2023/08/11 13:12:12;;;;;;;3.40;2.05;;;32.30;99.90;;;;;;5056881;28;20188;-52
2023/08/11 13:15:07;;;;;;;10.20;2.20;;;32.30;99.90;;;;;;5056518;28;20207;-47
2023/08/11 13:17:37;;;;;;;2.85;2.10;;;32.40;99.90;;;;;;5042520;28;20223;-52
2023/08/11 13:20:15;;;;;;;2.45;2.25;;;32.30;99.90;;;;;;5023590;28;20199;-51
2023/08/11 13:23:23;;;;;;;2.60;2.33;;;32.30;99.90;;;;;;5037829;28;20604;-46